Time;durP1;ratioP1;P1;durP2;ratioP2;P2;SDS_P1;SDS_P2;PMS_P1;PMS_P2;Temp;Humidity;BMP_temperature;BMP_pressure;BME280_temperature;BME280_humidity;BME280_pressure;Samples;Min_cycle;Max_cycle;Signal;HPM_P1;HPM_P2
2023/09/01 00:02:01;;;;;;;6.63;3.13;;;;;;;19.15;79.72;95376.38;5030238;28;20245;-77
2023/09/01 00:04:42;;;;;;;5.57;3.27;;;;;;;19.19;79.84;95377.47;5036097;28;20240;-76
2023/09/01 00:07:20;;;;;;;;;;;;;;;;;;;;;
2023/09/01 00:09:55;;;;;;;8.40;3.33;;;;;;;19.14;79.79;95380.03;5046473;28;20225;-77
2023/09/01 00:12:26;;;;;;;9.00;3.33;;;;;;;19.18;79.43;95386.47;4988277;28;20368;-74
2023/09/01 00:14:52;;;;;;;8.40;3.40;;;;;;;18.92;80.99;95381.78;4982214;28;20694;-73
2023/09/01 00:17:44;;;;;;;7.33;3.30;;;;;;;18.83;81.37;95384.03;5023104;28;20228;-75
2023/09/01 00:20:41;;;;;;;6.03;3.20;;;;;;;18.69;82.60;95388.03;5025694;28;20333;-73
2023/09/01 00:23:48;;;;;;;;;;;;;;;;;;;;;
2023/09/01 00:27:17;;;;;;;11.00;3.20;;;;;;;18.51;83.20;95396.19;4965241;28;20230;-74
2023/09/01 00:29:51;;;;;;;8.67;3.70;;;;;;;18.75;82.04;95392.38;4970263;28;20233;-73
2023/09/01 00:32:57;;;;;;;;;;;;;;;;;;;;;
2023/09/01 00:35:35;;;;;;;7.37;3.40;;;;;;;18.62;82.88;95385.53;4974520;28;20226;-77
2023/09/01 00:38:29;;;;;;;8.03;3.40;;;;;;;18.58;83.85;95386.25;4999144;28;20233;-76
2023/09/01 00:41:40;;;;;;;6.73;3.50;;;;;;;18.67;82.74;95384.81;4938956;28;20321;-74
2023/09/01 00:44:13;;;;;;;6.30;3.55;;;;;;;18.64;82.85;95385.28;4975837;28;20235;-76
2023/09/01 00:46:48;;;;;;;8.17;3.77;;;;;;;18.70;82.46;95382.50;4994405;28;20295;-77
2023/09/01 00:49:16;;;;;;;8.40;3.40;;;;;;;18.54;83.19;95390.41;4970404;28;21287;-77
2023/09/01 00:54:29;;;;;;;;;;;;;;;;;;;;;
2023/09/01 01:06:40;;;;;;;8.63;3.70;;;;;;;18.00;85.81;95387.22;5018467;28;20281;-76
2023/09/01 01:09:46;;;;;;;7.47;3.47;;;;;;;18.30;84.01;95392.31;5003777;28;20238;-75
2023/09/01 01:12:59;;;;;;;7.63;3.10;;;;;;;18.49;83.35;95388.47;5007546;28;20714;-76
2023/09/01 01:15:32;;;;;;;7.37;3.50;;;;;;;18.67;82.09;95393.59;4932455;28;20266;-75
2023/09/01 01:18:24;;;;;;;7.57;3.70;;;;;;;18.50;82.48;95387.44;4915013;28;20299;-75
2023/09/01 01:21:21;;;;;;;7.73;3.90;;;;;;;18.56;82.51;95393.63;5005487;28;20884;-75
2023/09/01 01:24:10;;;;;;;9.73;3.47;;;;;;;18.51;81.71;95382.94;5014123;28;20234;-76
2023/09/01 01:26:59;;;;;;;;;;;;;;;;;;;;;
2023/09/01 01:29:41;;;;;;;;;;;;;;;;;;;;;
2023/09/01 01:32:41;;;;;;;;;;;;;;;;;;;;;
2023/09/01 01:36:04;;;;;;;10.40;3.43;;;;;;;18.18;82.42;95386.25;5013242;28;20245;-75
2023/09/01 01:38:45;;;;;;;5.77;3.20;;;;;;;18.35;81.46;95392.41;5006106;28;20243;-74
2023/09/01 01:45:16;;;;;;;5.63;3.40;;;;;;;18.02;82.88;95384.31;4942423;28;20231;-74
2023/09/01 01:48:10;;;;;;;6.70;3.33;;;;;;;18.02;83.04;95371.09;4953463;28;20896;-74
2023/09/01 01:50:41;;;;;;;7.90;3.30;;;;;;;18.01;83.06;95378.22;4952440;28;20667;-74
2023/09/01 01:53:39;;;;;;;11.20;3.70;;;;;;;18.13;82.34;95378.19;4962377;28;20227;-74
2023/09/01 01:56:24;;;;;;;10.23;3.80;;;;;;;17.90;83.30;95376.41;4963706;23;20234;-74
2023/09/01 01:59:17;;;;;;;7.73;3.40;;;;;;;17.78;84.12;95375.63;5015701;28;20324;-74
2023/09/01 02:02:06;;;;;;;9.03;3.63;;;;;;;17.83;84.15;95374.94;4971067;28;20233;-75
2023/09/01 02:04:51;;;;;;;;;;;;;;;;;;;;;
2023/09/01 02:07:35;;;;;;;8.30;3.50;;;;;;;17.85;83.89;95365.72;4973590;28;20633;-73
2023/09/01 02:10:10;;;;;;;6.70;3.30;;;;;;;17.68;84.40;95372.75;4960414;28;20337;-74
2023/09/01 02:12:53;;;;;;;7.60;3.40;;;;;;;17.76;83.92;95376.88;4990734;28;20251;-75
2023/09/01 02:15:35;;;;;;;9.33;3.60;;;;;;;17.80;84.05;95378.84;4986766;28;20235;-73
2023/09/01 02:18:08;;;;;;;7.10;3.40;;;;;;;17.98;82.86;95377.91;4970455;28;20266;-77
2023/09/01 02:20:52;;;;;;;7.17;3.50;;;;;;;17.87;82.32;95384.81;4956776;28;20244;-76
2023/09/01 02:23:27;;;;;;;8.83;3.67;;;;;;;17.83;82.28;95393.47;4958622;28;20760;-76
2023/09/01 02:29:05;;;;;;;8.33;3.57;;;;;;;17.37;84.97;95387.13;4997593;28;20728;-76
2023/09/01 02:31:45;;;;;;;6.97;3.27;;;;;;;17.43;84.22;95378.25;4978589;28;20697;-73
2023/09/01 02:34:28;;;;;;;6.20;3.40;;;;;;;17.47;84.36;95382.06;4944051;28;20294;-76
2023/09/01 02:37:09;;;;;;;8.53;3.43;;;;;;;17.66;83.19;95382.78;4919077;28;20274;-76
2023/09/01 02:39:45;;;;;;;10.17;3.50;;;;;;;17.59;83.66;95387.38;4967777;28;20281;-74
2023/09/01 02:42:17;;;;;;;12.07;3.60;;;;;;;17.76;82.77;95384.84;5010466;28;20323;-77
2023/09/01 02:51:19;;;;;;;7.17;3.53;;;;;;;17.71;82.26;95374.94;4986618;28;20258;-74
2023/09/01 02:54:14;;;;;;;7.30;3.40;;;;;;;17.53;82.57;95375.06;4994549;28;20293;-74
2023/09/01 02:56:52;;;;;;;7.60;3.60;;;;;;;17.29;84.21;95371.56;4990608;28;20322;-73
2023/09/01 02:59:45;;;;;;;9.37;3.40;;;;;;;17.33;84.25;95378.03;4958330;28;20252;-75
2023/09/01 03:02:19;;;;;;;5.57;3.40;;;;;;;17.46;83.33;95377.78;4997582;28;20235;-75
2023/09/01 03:04:55;;;;;;;9.53;3.30;;;;;;;17.58;82.85;95377.03;4977080;28;20352;-76
2023/09/01 03:07:53;;;;;;;6.90;3.40;;;;;;;17.44;82.89;95373.75;4974450;28;20271;-76
2023/09/01 03:10:25;;;;;;;10.23;3.50;;;;;;;17.67;82.23;95384.41;5011784;28;20241;-77
2023/09/01 03:13:03;;;;;;;9.00;3.53;;;;;;;17.85;81.70;95392.19;5013128;28;20326;-74
2023/09/01 03:15:51;;;;;;;6.93;3.40;;;;;;;17.60;82.78;95391.63;5020049;28;20254;-73
2023/09/01 03:18:28;;;;;;;12.90;5.57;;;;;;;17.54;82.39;95392.56;4945738;28;20249;-74
2023/09/01 03:21:24;;;;;;;12.17;6.20;;;;;;;17.10;84.83;95390.44;4995198;28;20260;-74
2023/09/01 03:24:08;;;;;;;13.93;7.33;;;;;;;17.04;84.55;95394.81;4973971;28;20774;-74
2023/09/01 03:27:06;;;;;;;25.27;12.50;;;;;;;16.98;85.03;95390.41;5005576;28;20784;-75
2023/09/01 03:29:42;;;;;;;39.13;18.40;;;;;;;17.16;84.68;95397.47;4967684;28;20241;-74
2023/09/01 03:32:44;;;;;;;52.60;22.93;;;;;;;17.30;83.53;95394.38;4980221;28;20252;-74
2023/09/01 03:35:28;;;;;;;51.30;23.03;;;;;;;17.11;84.79;95394.69;5011320;28;20241;-75
2023/09/01 03:37:53;;;;;;;58.10;26.13;;;;;;;17.16;84.29;95400.09;5018197;28;20233;-74
2023/09/01 03:40:32;;;;;;;56.70;27.03;;;;;;;17.10;84.04;95398.38;5027158;28;20352;-75
2023/09/01 03:43:03;;;;;;;61.77;26.47;;;;;;;16.78;86.12;95400.50;5002816;28;20236;-74
2023/09/01 03:45:34;;;;;;;56.90;25.83;;;;;;;16.74;86.03;95394.84;4993768;28;20268;-74
2023/09/01 03:48:35;;;;;;;56.60;25.27;;;;;;;17.10;83.91;95393.88;4976810;28;20241;-74
2023/09/01 03:51:11;;;;;;;47.73;22.73;;;;;;;17.04;84.55;95394.81;4955747;28;20326;-73
2023/09/01 03:53:39;;;;;;;49.03;21.60;;;;;;;16.83;85.79;95390.03;5012772;28;20247;-75
2023/09/01 03:56:19;;;;;;;44.17;19.73;;;;;;;17.06;84.55;95391.91;5014324;28;20328;-76
2023/09/01 03:58:53;;;;;;;43.63;20.43;;;;;;;17.12;83.92;95398.97;5033520;28;20275;-76
2023/09/01 04:01:26;;;;;;;58.70;23.13;;;;;;;16.98;84.86;95400.97;4998926;28;20737;-77
2023/09/01 04:03:52;;;;;;;54.50;23.87;;;;;;;16.74;86.20;95400.13;5011511;28;20275;-76
2023/09/01 04:06:45;;;;;;;64.03;25.93;;;;;;;17.10;84.48;95401.03;5021223;28;20682;-76
2023/09/01 04:13:00;;;;;;;72.20;28.80;;;;;;;16.73;85.78;95411.75;5012952;28;20241;-74
2023/09/01 04:15:26;;;;;;;65.73;26.03;;;;;;;16.86;85.59;95418.66;4999683;28;20244;-75
2023/09/01 04:18:12;;;;;;;60.70;24.23;;;;;;;17.01;84.74;95428.81;5000899;28;20817;-75
2023/09/01 04:21:00;;;;;;;57.90;21.57;;;;;;;17.06;84.42;95419.19;5005340;28;20275;-75
2023/09/01 04:23:51;;;;;;;47.37;20.67;;;;;;;17.08;84.15;95425.03;5024762;28;20311;-76
2023/09/01 04:26:34;;;;;;;51.63;21.20;;;;;;;17.15;84.08;95427.56;4958834;28;20243;-76
2023/09/01 04:29:18;;;;;;;57.93;22.93;;;;;;;17.10;84.00;95422.97;4970587;28;20246;-75
2023/09/01 04:31:49;;;;;;;55.70;21.63;;;;;;;17.14;83.77;95416.22;4953626;28;20327;-76
2023/09/01 04:34:14;;;;;;;52.17;21.00;;;;;;;17.22;84.48;95423.81;4978215;28;20242;-77
2023/09/01 04:36:40;;;;;;;58.80;19.97;;;;;;;16.95;85.58;95427.09;4958463;28;20687;-76
2023/09/01 04:40:09;;;;;;;49.40;18.77;;;;;;;17.08;84.73;95432.16;4971089;28;20234;-76
2023/09/01 04:42:45;;;;;;;39.27;16.20;;;;;;;17.29;83.46;95443.03;4993534;28;20737;-76
2023/09/01 04:45:47;;;;;;;38.93;14.63;;;;;;;17.36;82.82;95433.13;4986974;28;20376;-75
2023/09/01 04:51:23;;;;;;;25.87;11.47;;;;;;;17.36;82.82;95443.72;5009339;28;20243;-76
2023/09/01 04:54:10;;;;;;;32.43;12.50;;;;;;;17.65;81.76;95438.63;5002689;28;20236;-76
2023/09/01 04:56:38;;;;;;;33.33;12.20;;;;;;;17.41;82.63;95443.84;4973253;28;20302;-76
2023/09/01 04:59:31;;;;;;;31.07;13.20;;;;;;;17.52;82.46;95454.72;4969833;28;20244;-76
2023/09/01 05:02:25;;;;;;;37.60;14.67;;;;;;;17.58;82.15;95459.09;4986675;28;20241;-76
2023/09/01 05:05:37;;;;;;;;;;;;;;;;;;;;;
2023/09/01 05:08:11;;;;;;;29.50;12.17;;;;;;;17.72;81.20;95465.78;4957910;28;20399;-74
2023/09/01 05:10:52;;;;;;;21.27;9.00;;;;;;;17.78;80.51;95459.53;5007574;28;20880;-73
2023/09/01 05:13:35;;;;;;;21.77;8.30;;;;;;;17.95;79.22;95469.22;5006033;28;20239;-74
2023/09/01 05:16:15;;;;;;;24.23;8.27;;;;;;;17.75;80.45;95474.06;5040394;28;20233;-73
2023/09/01 05:18:50;;;;;;;20.97;8.00;;;;;;;17.84;80.60;95470.03;4992749;28;20226;-74
2023/09/01 05:21:58;;;;;;;17.17;6.73;;;;;;;17.71;80.62;95470.25;5019351;28;20324;-76
2023/09/01 05:24:41;;;;;;;14.80;7.10;;;;;;;17.72;80.74;95471.06;4939577;28;20236;-76
2023/09/01 05:27:22;;;;;;;;;;;;;;;;;;;;;
2023/09/01 05:32:51;;;;;;;15.80;6.80;;;;;;;17.74;80.62;95480.41;4955865;28;20365;-75
2023/09/01 05:35:26;;;;;;;21.37;7.43;;;;;;;18.14;79.85;95486.59;4938382;28;20239;-75
2023/09/01 05:38:13;;;;;;;14.93;6.80;;;;;;;18.13;79.45;95474.38;4951367;28;20330;-76
2023/09/01 05:40:42;;;;;;;15.27;6.73;;;;;;;18.14;80.14;95480.50;4918894;28;20244;-77
2023/09/01 05:43:08;;;;;;;17.47;6.40;;;;;;;18.30;78.99;95485.06;4930699;28;21013;-74
2023/09/01 05:45:43;;;;;;;14.77;6.77;;;;;;;18.33;79.23;95475.84;4933001;28;20237;-76
2023/09/01 05:48:53;;;;;;;15.80;6.50;;;;;;;18.37;78.56;95483.09;4937066;28;20258;-76
2023/09/01 05:51:31;;;;;;;18.60;7.47;;;;;;;18.36;79.48;95484.16;4905974;29;20324;-75
2023/09/01 05:53:56;;;;;;;16.30;8.07;;;;;;;18.49;78.77;95485.75;4900840;28;20241;-75
2023/09/01 05:56:30;;;;;;;14.97;7.47;;;;;;;18.49;78.81;95481.25;4959104;28;20238;-75
2023/09/01 05:59:33;;;;;;;12.67;6.77;;;;;;;18.35;79.25;95477.22;4919009;29;20236;-74
2023/09/01 06:01:59;;;;;;;11.93;5.17;;;;;;;18.56;79.13;95481.13;4919786;28;20236;-74
2023/09/01 06:04:27;;;;;;;10.03;4.70;;;;;;;18.71;78.46;95478.78;4926770;28;20960;-76
2023/09/01 06:06:53;;;;;;;9.17;4.83;;;;;;;18.90;77.42;95480.19;4996012;28;20329;-75
2023/09/01 06:09:40;;;;;;;12.03;4.37;;;;;;;19.03;76.80;95479.94;4996147;28;20323;-73
2023/09/01 06:12:06;;;;;;;9.30;4.13;;;;;;;19.05;76.90;95483.13;4917534;29;20316;-75
2023/09/01 06:14:35;;;;;;;7.87;3.57;;;;;;;19.10;77.21;95483.25;4927824;28;20241;-74
2023/09/01 06:17:29;;;;;;;12.47;3.87;;;;;;;19.04;77.37;95494.78;4910524;29;20791;-74
2023/09/01 06:19:57;;;;;;;9.70;4.13;;;;;;;19.18;77.40;95495.28;4941660;28;20746;-74
2023/09/01 06:22:26;;;;;;;8.70;3.80;;;;;;;19.19;77.19;95488.94;4946910;29;20240;-74
2023/09/01 06:25:09;;;;;;;8.30;4.10;;;;;;;19.30;76.76;95493.38;4944469;28;20271;-74
2023/09/01 06:27:37;;;;;;;10.93;4.07;;;;;;;19.43;76.27;95501.09;4889324;29;20248;-73
2023/09/01 06:30:20;;;;;;;11.90;4.40;;;;;;;19.35;76.46;95499.59;4958533;28;20842;-74
2023/09/01 06:33:38;;;;;;;9.13;3.97;;;;;;;19.43;76.30;95496.59;4967621;28;20236;-74
2023/09/01 06:36:05;;;;;;;11.17;4.10;;;;;;;19.51;75.99;95497.22;4956990;28;20334;-75
2023/09/01 06:38:31;;;;;;;9.77;4.30;;;;;;;19.54;76.11;95502.03;4971840;28;20326;-75
2023/09/01 06:41:03;;;;;;;10.97;4.83;;;;;;;19.54;76.06;95504.69;4965469;28;20763;-74
2023/09/01 06:43:38;;;;;;;11.17;4.47;;;;;;;19.66;75.76;95494.81;4998406;28;20234;-75
2023/09/01 06:46:06;;;;;;;8.30;4.17;;;;;;;19.75;75.44;95502.13;4997786;28;20239;-74
2023/09/01 06:48:32;;;;;;;11.13;4.33;;;;;;;19.79;75.10;95503.28;5025868;28;20233;-74
2023/09/01 06:50:59;;;;;;;9.93;4.60;;;;;;;19.94;74.67;95503.50;4996319;28;20717;-75
2023/09/01 06:53:25;;;;;;;10.90;4.30;;;;;;;20.04;74.89;95506.31;5000034;28;20235;-74
2023/09/01 06:55:51;;;;;;;10.03;4.40;;;;;;;20.05;75.02;95513.25;5006887;28;20233;-78
2023/09/01 06:58:17;;;;;;;7.87;4.00;;;;;;;20.11;74.58;95504.28;4979704;28;20249;-74
2023/09/01 07:00:42;;;;;;;9.87;4.27;;;;;;;20.17;74.25;95513.13;5025376;28;20303;-74
2023/09/01 07:03:08;;;;;;;10.90;4.37;;;;;;;20.26;73.72;95513.53;4976690;28;20671;-74
2023/09/01 07:05:36;;;;;;;12.20;5.30;;;;;;;20.29;73.97;95516.53;4984272;28;20241;-75
2023/09/01 07:08:14;;;;;;;11.07;4.90;;;;;;;20.40;73.36;95522.78;4989296;28;20319;-75
2023/09/01 07:11:01;;;;;;;;;;;;;;;;;;;;;
2023/09/01 07:13:27;;;;;;;11.43;4.47;;;;;;;20.48;72.44;95515.19;4971195;28;20245;-73
2023/09/01 07:15:52;;;;;;;9.23;4.40;;;;;;;20.50;72.38;95520.25;4985902;28;20623;-74
2023/09/01 07:18:18;;;;;;;9.30;4.23;;;;;;;20.54;72.67;95524.84;4987708;28;20293;-74
2023/09/01 07:20:49;;;;;;;11.27;4.60;;;;;;;20.58;72.34;95518.00;4970754;28;20235;-74
2023/09/01 07:23:34;;;;;;;;;;;;;;;;;;;;;
2023/09/01 07:26:09;;;;;;;14.80;5.77;;;;;;;20.86;72.03;95530.31;4968188;28;20248;-76
2023/09/01 07:28:38;;;;;;;10.47;4.83;;;;;;;20.89;70.95;95511.19;5012862;28;20241;-76
2023/09/01 07:31:25;;;;;;;10.80;4.50;;;;;;;20.98;71.12;95519.53;5012929;28;20237;-78
2023/09/01 07:33:51;;;;;;;10.13;4.20;;;;;;;21.09;70.91;95514.09;5002075;28;20230;-77
2023/09/01 07:36:17;;;;;;;11.23;4.97;;;;;;;21.10;70.65;95518.38;4998098;28;20246;-77
2023/09/01 07:38:54;;;;;;;11.60;4.60;;;;;;;20.97;70.50;95517.94;4976542;28;20234;-78
2023/09/01 07:41:20;;;;;;;9.87;4.30;;;;;;;21.08;69.77;95517.81;5020562;28;20284;-76
2023/09/01 07:43:45;;;;;;;9.17;4.40;;;;;;;21.22;70.27;95518.22;5015130;28;20234;-76
2023/09/01 07:46:20;;;;;;;9.97;4.47;;;;;;;21.25;69.64;95518.53;4958577;28;25308;-78
2023/09/01 07:48:46;;;;;;;11.00;4.40;;;;;;;21.35;69.09;95523.94;4998088;28;20232;-75
2023/09/01 07:51:14;;;;;;;10.60;5.00;;;;;;;21.42;68.58;95521.09;5004342;28;20296;-75
2023/09/01 07:53:40;;;;;;;11.80;4.60;;;;;;;21.50;68.67;95517.94;4976030;28;20324;-76
2023/09/01 07:56:11;;;;;;;10.00;4.73;;;;;;;21.60;68.22;95514.56;5015499;28;20340;-74
2023/09/01 07:58:48;;;;;;;9.13;4.67;;;;;;;21.68;66.98;95511.47;4999883;28;20253;-75
2023/09/01 08:01:16;;;;;;;11.23;4.70;;;;;;;21.76;65.94;95516.31;4973180;28;20267;-73
2023/09/01 08:06:52;;;;;;;11.37;4.90;;;;;;;21.84;65.33;95519.34;4972699;28;20265;-74
2023/09/01 08:09:26;;;;;;;7.88;4.80;;;;;;;21.96;64.81;95516.50;4988420;28;20261;-73
2023/09/01 08:11:52;;;;;;;9.15;5.07;;;;;;;22.07;64.23;95520.84;5017841;28;20799;-74
2023/09/01 08:14:18;;;;;;;10.50;5.40;;;;;;;22.12;63.82;95519.03;4996466;28;20276;-74
2023/09/01 08:20:05;;;;;;;10.53;5.20;;;;;;;22.39;63.54;95510.94;4996718;28;20234;-74
2023/09/01 08:22:39;;;;;;;9.35;5.30;;;;;;;22.43;62.68;95521.88;5010837;28;20259;-74
2023/09/01 08:25:22;;;;;;;9.65;5.70;;;;;;;22.45;61.25;95514.44;5001528;28;20632;-75
2023/09/01 08:28:09;;;;;;;8.68;6.07;;;;;;;22.46;60.56;95514.16;4978122;28;20330;-74
2023/09/01 08:31:06;;;;;;;7.17;5.57;;;;;;;22.66;60.54;95511.63;5000187;28;20231;-73
2023/09/01 08:33:37;;;;;;;9.37;5.73;;;;;;;22.75;60.30;95507.41;4973850;28;20234;-77
2023/09/01 08:36:05;;;;;;;9.55;5.80;;;;;;;22.85;59.59;95508.50;4982000;28;20344;-76
2023/09/01 08:38:34;;;;;;;8.40;5.63;;;;;;;22.83;60.00;95505.28;5016065;28;20237;-76
2023/09/01 08:41:08;;;;;;;12.73;6.05;;;;;;;22.98;59.59;95503.47;5026084;28;20774;-77
2023/09/01 08:43:40;;;;;;;8.97;5.30;;;;;;;23.01;59.07;95500.28;5024898;28;20229;-76
2023/09/01 08:46:06;;;;;;;10.30;6.00;;;;;;;23.03;59.18;95492.81;5001698;28;20770;-74
2023/09/01 08:48:32;;;;;;;9.77;5.90;;;;;;;23.19;59.40;95499.00;4980830;28;20682;-74
2023/09/01 08:51:14;;;;;;;12.07;5.90;;;;;;;23.35;58.05;95498.81;4983900;28;20790;-76
2023/09/01 08:53:46;;;;;;;8.27;6.03;;;;;;;23.47;58.21;95497.75;5008132;28;20340;-77
2023/09/01 08:56:15;;;;;;;8.65;5.90;;;;;;;23.61;57.26;95496.16;4989906;28;20718;-77
2023/09/01 08:58:46;;;;;;;8.85;5.63;;;;;;;23.76;57.12;95498.84;5024869;28;20242;-76
2023/09/01 09:01:13;;;;;;;9.85;5.85;;;;;;;23.75;56.49;95503.38;4980449;28;20297;-74
2023/09/01 09:03:56;;;;;;;7.68;5.60;;;;;;;23.67;56.44;95492.44;4999560;28;20706;-75
2023/09/01 09:06:32;;;;;;;8.00;5.22;;;;;;;23.71;56.45;95491.63;4989810;28;20301;-77
2023/09/01 09:09:11;;;;;;;7.00;5.20;;;;;;;23.77;55.22;95493.22;5006536;28;20234;-74
2023/09/01 09:12:00;;;;;;;7.80;5.10;;;;;;;23.80;54.47;95498.03;5029643;28;20234;-75
2023/09/01 09:14:42;;;;;;;;;;;;;;;;;;;;;
2023/09/01 09:17:11;;;;;;;7.75;5.28;;;;;;;24.04;54.86;95493.75;4991969;28;20241;-75
2023/09/01 09:20:00;;;;;;;8.18;5.10;;;;;;;24.03;54.36;95496.66;5030568;28;20226;-74
2023/09/01 09:22:29;;;;;;;7.85;5.30;;;;;;;24.09;54.30;95488.41;4971680;28;20731;-74
2023/09/01 09:24:58;;;;;;;9.30;5.40;;;;;;;24.19;53.96;95484.13;5009504;28;20226;-75
2023/09/01 09:28:07;;;;;;;9.60;5.78;;;;;;;24.14;53.19;95484.13;5021725;28;20751;-74
2023/09/01 09:33:54;;;;;;;8.98;5.32;;;;;;;24.35;53.81;95477.66;4919913;28;21076;-75
2023/09/01 09:36:32;;;;;;;8.88;4.97;;;;;;;24.47;53.36;95473.59;4987119;28;20234;-75
2023/09/01 09:38:58;;;;;;;7.75;4.90;;;;;;;24.47;52.33;95468.25;5004783;28;20267;-75
2023/09/01 09:41:24;;;;;;;8.30;5.05;;;;;;;24.66;52.73;95471.94;5011225;28;20269;-74
2023/09/01 09:44:04;;;;;;;7.13;4.90;;;;;;;24.66;52.10;95468.44;4985174;28;21001;-75
2023/09/01 09:46:39;;;;;;;7.32;4.80;;;;;;;24.62;51.40;95470.09;4988604;28;20377;-77
2023/09/01 09:49:08;;;;;;;8.30;4.50;;;;;;;24.79;51.13;95470.56;4982036;28;20758;-77
2023/09/01 09:51:46;;;;;;;7.97;5.03;;;;;;;24.89;50.74;95461.66;5024436;28;20234;-75
2023/09/01 09:54:46;;;;;;;10.82;4.97;;;;;;;24.92;50.29;95461.13;4989630;28;20247;-75
2023/09/01 09:57:17;;;;;;;9.00;5.30;;;;;;;24.73;49.83;95472.44;5017358;28;20251;-74
2023/09/01 10:00:24;;;;;;;8.25;5.15;;;;;;;24.71;50.52;95473.78;5023046;28;20710;-75
2023/09/01 10:03:34;;;;;;;8.50;5.30;;;;;;;24.75;50.28;95464.94;5005058;28;20756;-74
2023/09/01 10:06:36;;;;;;;7.88;5.45;;;;;;;24.96;50.10;95457.63;4976182;28;20245;-73
2023/09/01 10:09:17;;;;;;;8.25;5.25;;;;;;;24.99;50.24;95454.41;4999833;28;20332;-74
2023/09/01 10:12:25;;;;;;;8.93;6.07;;;;;;;24.94;49.20;95451.75;5020084;23;20232;-74
2023/09/01 10:15:03;;;;;;;;;;;;;;;;;;;;;
2023/09/01 10:20:43;;;;;;;9.13;4.80;;;;;;;25.46;48.86;95443.13;4949412;28;20317;-74
2023/09/01 10:23:17;;;;;;;8.18;4.60;;;;;;;25.47;48.75;95454.66;4969077;28;20270;-74
2023/09/01 10:26:44;;;;;;;7.82;4.80;;;;;;;25.62;48.73;95455.34;4953955;28;20325;-75
2023/09/01 10:29:12;;;;;;;8.88;4.88;;;;;;;25.71;48.25;95459.03;4968623;28;20331;-76
2023/09/01 10:31:44;;;;;;;7.03;4.65;;;;;;;25.82;47.83;95457.03;4962963;28;20246;-75
2023/09/01 10:34:19;;;;;;;8.45;4.78;;;;;;;26.02;48.29;95454.19;4893461;28;20629;-74
2023/09/01 10:36:45;;;;;;;10.10;5.35;;;;;;;26.03;46.83;95458.50;4921275;28;20326;-74
2023/09/01 10:40:15;;;;;;;10.00;4.88;;;;;;;25.78;46.79;95450.66;4976849;28;20362;-74
2023/09/01 10:46:09;;;;;;;7.88;4.78;;;;;;;26.16;47.85;95438.25;4953249;28;20903;-76
2023/09/01 10:49:10;;;;;;;8.50;4.75;;;;;;;26.22;45.49;95439.81;4981712;28;20230;-74
2023/09/01 10:51:41;;;;;;;7.25;4.70;;;;;;;26.34;46.50;95437.53;4962354;28;20260;-75
2023/09/01 10:54:22;;;;;;;7.15;4.70;;;;;;;26.25;44.53;95437.34;5009382;28;20229;-74
2023/09/01 10:56:58;;;;;;;9.27;4.63;;;;;;;26.34;45.42;95443.72;5040006;28;20295;-77
2023/09/01 10:59:35;;;;;;;7.65;4.22;;;;;;;26.52;43.18;95437.59;5009468;28;20237;-78
2023/09/01 11:02:31;;;;;;;7.18;4.25;;;;;;;26.76;43.13;95439.47;5033534;28;20240;-77
2023/09/01 11:04:57;;;;;;;6.20;4.20;;;;;;;26.66;43.66;95435.00;5025605;28;20631;-75
2023/09/01 11:07:23;;;;;;;10.65;4.88;;;;;;;26.79;43.66;95428.16;5046393;28;20699;-74
2023/09/01 11:10:02;;;;;;;7.25;4.85;;;;;;;26.84;44.39;95420.03;5012944;28;20248;-74
2023/09/01 11:12:42;;;;;;;8.50;4.60;;;;;;;26.89;44.43;95419.97;5035549;28;20240;-74
2023/09/01 11:15:08;;;;;;;8.10;4.53;;;;;;;26.90;44.75;95418.84;5015150;28;20232;-74
2023/09/01 11:20:29;;;;;;;8.00;4.57;;;;;;;26.99;42.97;95417.16;5050199;28;20247;-74
2023/09/01 11:22:56;;;;;;;9.48;5.13;;;;;;;26.84;42.99;95415.47;5028428;28;20232;-79
2023/09/01 11:25:27;;;;;;;8.32;5.22;;;;;;;26.83;42.65;95413.84;5019899;28;20232;-77
2023/09/01 11:27:58;;;;;;;8.35;4.43;;;;;;;27.09;42.39;95407.03;5037391;28;20237;-75
2023/09/01 11:33:22;;;;;;;8.75;4.30;;;;;;;27.19;41.71;95400.72;5010481;28;20235;-77
2023/09/01 11:35:51;;;;;;;8.90;4.43;;;;;;;27.14;42.68;95398.09;5027057;28;20719;-77
2023/09/01 11:38:18;;;;;;;7.53;4.45;;;;;;;26.87;41.78;95385.31;4996073;28;20263;-76
2023/09/01 11:41:07;;;;;;;6.47;4.50;;;;;;;27.13;42.48;95396.50;5040606;28;20233;-77
2023/09/01 11:43:39;;;;;;;6.03;4.40;;;;;;;27.05;42.44;95395.28;5024036;28;20228;-74
2023/09/01 11:46:07;;;;;;;5.05;4.15;;;;;;;27.13;41.87;95391.13;5062181;28;20237;-75
2023/09/01 11:48:33;;;;;;;10.45;4.38;;;;;;;27.25;41.82;95392.28;5029755;28;20238;-75
2023/09/01 11:51:10;;;;;;;6.20;4.45;;;;;;;27.30;42.01;95394.88;5033732;28;20237;-74
2023/09/01 11:53:38;;;;;;;6.32;4.32;;;;;;;27.07;41.39;95394.97;5056869;28;20264;-74
2023/09/01 11:56:23;;;;;;;4.88;4.15;;;;;;;26.96;41.75;95385.47;5034910;28;20242;-75
2023/09/01 11:58:52;;;;;;;6.47;4.30;;;;;;;27.13;41.98;95391.13;4993733;28;20673;-75
2023/09/01 12:01:19;;;;;;;6.30;4.18;;;;;;;27.24;40.98;95390.69;5019681;28;20237;-75
2023/09/01 12:03:55;;;;;;;6.65;3.97;;;;;;;27.36;39.53;95384.84;5039225;28;20233;-75
2023/09/01 12:06:24;;;;;;;6.55;3.95;;;;;;;27.49;40.07;95380.66;5036507;28;20232;-77
2023/09/01 12:09:01;;;;;;;6.47;4.10;;;;;;;27.61;39.28;95381.00;5050319;28;20233;-75
2023/09/01 12:11:26;;;;;;;6.40;3.70;;;;;;;27.29;38.91;95382.56;5026507;28;20241;-74
2023/09/01 12:13:53;;;;;;;4.93;3.80;;;;;;;27.37;38.22;95373.81;5020392;28;20244;-75
2023/09/01 12:16:21;;;;;;;6.20;3.75;;;;;;;27.59;39.85;95375.88;5043874;28;20233;-76
2023/09/01 12:18:49;;;;;;;8.60;4.20;;;;;;;27.61;39.39;95371.00;5019108;28;20675;-74
2023/09/01 12:21:18;;;;;;;6.45;4.90;;;;;;;27.65;40.33;95365.84;5020327;28;20277;-75
2023/09/01 12:24:04;;;;;;;5.90;4.38;;;;;;;27.57;39.91;95361.13;5038004;28;20234;-75
2023/09/01 12:26:30;;;;;;;7.75;4.40;;;;;;;27.63;40.03;95360.78;5009893;28;20779;-74
2023/09/01 12:29:08;;;;;;;8.13;4.30;;;;;;;27.71;39.84;95361.97;5043691;28;20232;-74
2023/09/01 12:31:36;;;;;;;7.75;4.50;;;;;;;27.68;39.30;95365.28;5049146;28;20240;-74
2023/09/01 12:34:05;;;;;;;8.10;4.18;;;;;;;27.67;39.57;95356.41;5030747;28;20248;-74
2023/09/01 12:36:41;;;;;;;7.70;4.00;;;;;;;27.70;39.43;95355.00;5028978;28;20239;-74
2023/09/01 12:39:10;;;;;;;7.72;4.20;;;;;;;27.60;39.33;95353.28;5061861;28;20322;-75
2023/09/01 12:41:43;;;;;;;5.90;3.85;;;;;;;27.68;37.83;95349.91;5068663;28;20232;-73
2023/09/01 12:44:09;;;;;;;6.18;4.10;;;;;;;27.86;38.39;95353.63;5031025;28;20232;-75
2023/09/01 12:46:35;;;;;;;5.68;4.00;;;;;;;27.96;38.68;95351.56;5057019;28;20255;-76
2023/09/01 12:49:00;;;;;;;5.97;4.20;;;;;;;27.87;38.95;95347.16;5054247;28;20729;-75
2023/09/01 12:51:28;;;;;;;5.45;3.80;;;;;;;27.97;37.44;95338.88;5037452;28;20259;-74
2023/09/01 12:54:03;;;;;;;6.18;3.70;;;;;;;27.81;38.00;95342.94;5011294;28;20321;-75
2023/09/01 12:56:33;;;;;;;5.10;4.00;;;;;;;27.65;38.12;95345.13;5058375;28;20232;-77
2023/09/01 12:58:58;;;;;;;7.10;4.15;;;;;;;27.63;38.47;95333.06;5005427;28;20715;-75
2023/09/01 13:01:32;;;;;;;5.55;4.20;;;;;;;27.54;38.67;95335.63;5045831;28;20381;-76
2023/09/01 13:03:58;;;;;;;6.07;4.40;;;;;;;27.64;38.15;95343.53;5052805;28;20897;-74
2023/09/01 13:06:35;;;;;;;6.88;4.10;;;;;;;27.78;38.39;95333.59;5037281;28;20722;-74
2023/09/01 13:09:03;;;;;;;5.07;3.97;;;;;;;27.95;37.20;95335.69;5061809;28;20836;-75
2023/09/01 13:11:31;;;;;;;7.25;4.40;;;;;;;27.89;37.99;95343.09;5040074;28;20237;-77
2023/09/01 13:14:02;;;;;;;7.38;4.30;;;;;;;27.79;38.46;95337.88;5032483;28;20262;-76
2023/09/01 13:16:30;;;;;;;5.20;4.15;;;;;;;27.80;38.29;95338.69;5040209;28;20342;-74
2023/09/01 13:19:02;;;;;;;7.63;4.43;;;;;;;27.72;38.67;95348.22;5033247;28;20695;-76
2023/09/01 13:21:28;;;;;;;6.07;3.92;;;;;;;27.71;37.74;95341.25;5028988;28;20860;-74
2023/09/01 13:23:53;;;;;;;5.47;3.80;;;;;;;27.56;36.74;95341.50;5011760;28;20383;-76
2023/09/01 13:26:25;;;;;;;4.95;3.90;;;;;;;27.71;37.98;95343.94;5009260;28;20237;-77
2023/09/01 13:28:51;;;;;;;5.45;3.80;;;;;;;27.68;37.20;95339.13;5024861;28;20633;-77
2023/09/01 13:31:20;;;;;;;5.95;3.90;;;;;;;27.63;36.29;95341.94;4997739;28;20237;-76
2023/09/01 13:33:47;;;;;;;4.18;3.65;;;;;;;27.53;36.24;95344.81;5018633;28;20229;-78
2023/09/01 13:36:16;;;;;;;7.68;4.07;;;;;;;27.68;36.74;95338.38;5032129;28;20947;-76